createdAt,value
2023-01-04T00:00:08.045Z,102365.66
2023-01-04T00:02:36.009Z,102360.06
2023-01-04T00:05:05.295Z,102359.25
2023-01-04T00:07:33.006Z,102352.81
2023-01-04T00:10:00.608Z,102341.63
2023-01-04T00:12:28.622Z,102336.03
2023-01-04T00:14:56.270Z,102330.44
2023-01-04T00:17:23.972Z,102326.81
2023-01-04T00:19:51.668Z,102323.16
2023-01-04T00:22:20.708Z,102309.81
2023-01-04T00:24:48.711Z,102322.34
2023-01-04T00:27:16.323Z,102313.63
2023-01-04T00:29:45.362Z,102294.34
2023-01-04T00:32:13.319Z,102280.69
2023-01-04T00:34:41.068Z,102273.44
2023-01-04T00:37:08.749Z,102268.47
2023-01-04T00:39:37.831Z,102263.69
2023-01-04T00:42:06.167Z,102264.56
2023-01-04T00:44:34.453Z,102271.78
2023-01-04T00:47:02.724Z,102271.78
2023-01-04T00:49:30.640Z,102270.16
2023-01-04T00:51:58.555Z,102263.41
2023-01-04T00:54:26.247Z,102263.41
2023-01-04T00:56:55.294Z,102247.75
2023-01-04T00:59:23.181Z,102242.16
2023-01-04T01:01:51.183Z,102242.16
2023-01-04T01:04:19.707Z,102240.47
2023-01-04T01:06:47.687Z,102247.75
2023-01-04T01:09:15.332Z,102242.97
2023-01-04T01:11:43.069Z,102243.78
2023-01-04T01:14:13.750Z,102249.41
2023-01-04T01:16:58.549Z,102245.44
2023-01-04T01:19:26.839Z,102247.41
2023-01-04T01:21:54.592Z,102243.78
2023-01-04T01:24:22.166Z,102236.56
2023-01-04T01:26:49.898Z,102244.97
2023-01-04T01:29:19.236Z,102245.78
2023-01-04T01:31:46.958Z,102260.59
2023-01-04T01:34:14.991Z,102246.59
2023-01-04T01:36:42.735Z,102242.16
2023-01-04T01:39:10.431Z,102235.41
2023-01-04T01:41:38.016Z,102225.34
2023-01-04T01:44:06.879Z,102219.75
2023-01-04T01:46:37.244Z,102230.97
2023-01-04T01:49:06.208Z,102229.28
2023-01-04T01:51:34.095Z,102227.63
2023-01-04T01:54:03.115Z,102226.00
2023-01-04T01:56:30.773Z,102220.41
2023-01-04T01:58:58.392Z,102218.75
2023-01-04T02:01:26.246Z,102217.59
2023-01-04T02:03:55.400Z,102207.56
2023-01-04T02:06:23.747Z,102192.41
2023-01-04T02:08:51.354Z,102190.78
2023-01-04T02:11:18.976Z,102175.63
2023-01-04T02:14:03.961Z,102170.00
2023-01-04T02:16:36.142Z,102153.22
2023-01-04T02:19:07.161Z,102144.34
2023-01-04T02:21:36.386Z,102133.97
2023-01-04T02:24:11.819Z,102130.66
2023-01-04T02:26:54.237Z,102118.63
2023-01-04T02:29:48.696Z,102111.41
2023-01-04T02:32:18.650Z,102104.16
2023-01-04T02:34:47.547Z,102094.13
2023-01-04T02:37:18.727Z,102094.44
2023-01-04T02:39:48.721Z,102096.94
2023-01-04T02:42:17.701Z,102096.94
2023-01-04T02:44:54.415Z,102107.31
2023-01-04T02:47:44.213Z,102093.63
2023-01-04T02:50:31.279Z,102106.44
2023-01-04T02:52:58.964Z,102085.22
2023-01-04T02:55:26.847Z,102078.47
2023-01-04T02:57:55.461Z,102068.94
2023-01-04T03:00:28.965Z,102070.91
2023-01-04T03:03:23.548Z,102061.66
2023-01-04T03:06:09.773Z,102059.72
2023-01-04T03:08:38.469Z,102052.16
2023-01-04T03:11:28.900Z,102044.88
2023-01-04T03:13:55.549Z,102041.59
2023-01-04T03:16:23.481Z,102045.22
2023-01-04T03:18:53.247Z,102034.84
2023-01-04T03:21:20.926Z,102032.03
2023-01-04T03:24:05.871Z,102030.41
2023-01-04T03:26:50.739Z,102023.16
2023-01-04T03:29:36.414Z,102009.50
2023-01-04T03:32:22.897Z,102011.16
2023-01-04T03:35:09.239Z,102007.19
2023-01-04T03:37:38.523Z,102003.22
2023-01-04T03:40:31.651Z,101991.22
2023-01-04T03:43:21.081Z,101978.38
2023-01-04T03:46:06.871Z,101985.63
2023-01-04T03:48:35.725Z,101980.03
2023-01-04T03:51:08.562Z,101974.44
2023-01-04T03:53:37.523Z,101962.41
2023-01-04T03:56:05.563Z,101976.06
2023-01-04T03:58:33.393Z,101966.84
2023-01-04T04:01:03.905Z,101964.88
2023-01-04T04:03:49.386Z,101953.69
2023-01-04T04:06:35.537Z,101934.25
2023-01-04T04:09:03.457Z,101944.47
2023-01-04T04:11:33.923Z,101933.59
2023-01-04T04:14:01.839Z,101926.84
2023-01-04T04:16:29.589Z,101916.81
2023-01-04T04:18:57.255Z,101909.59
2023-01-04T04:21:26.229Z,101897.22
2023-01-04T04:23:55.407Z,101891.16
2023-01-04T04:26:23.537Z,101891.16
2023-01-04T04:28:51.153Z,101891.16
2023-01-04T04:31:18.863Z,101885.56
2023-01-04T04:33:46.493Z,101880.78
2023-01-04T04:36:14.074Z,101873.19
2023-01-04T04:38:42.998Z,101872.38
2023-01-04T04:41:28.347Z,101863.50
2023-01-04T04:43:56.015Z,101856.59
2023-01-04T04:46:23.684Z,101849.38
2023-01-04T04:48:51.480Z,101843.78
2023-01-04T04:51:19.165Z,101833.88
2023-01-04T04:53:48.498Z,101831.88
2023-01-04T04:56:16.353Z,101824.66
2023-01-04T04:58:44.001Z,101824.66
2023-01-04T05:01:11.689Z,101819.06
2023-01-04T05:03:39.583Z,101816.25
2023-01-04T05:06:07.320Z,101811.94
2023-01-04T05:08:35.150Z,101811.13
2023-01-04T05:11:06.782Z,101802.44
2023-01-04T05:13:33.660Z,101784.81
2023-01-04T05:16:01.644Z,101775.91
2023-01-04T05:18:29.383Z,101779.22
2023-01-04T05:20:57.207Z,101779.22
2023-01-04T05:23:24.864Z,101766.84
2023-01-04T05:25:52.900Z,101756.84
2023-01-04T05:28:21.919Z,101747.28
2023-01-04T05:30:51.979Z,101740.03
2023-01-04T05:33:20.145Z,101733.94
2023-01-04T05:35:47.803Z,101719.13
2023-01-04T05:38:15.512Z,101708.75
2023-01-04T05:40:43.148Z,101704.78
2023-01-04T05:43:10.843Z,101709.25
2023-01-04T05:45:39.889Z,101699.19
2023-01-04T05:48:07.507Z,101700.88
2023-01-04T05:50:35.294Z,101681.47
2023-01-04T05:53:05.398Z,101688.97
2023-01-04T05:55:32.988Z,101683.38
2023-01-04T05:58:00.802Z,101679.41
2023-01-04T06:00:28.412Z,101685.81
2023-01-04T06:02:57.475Z,101681.03
2023-01-04T06:05:25.433Z,101676.28
2023-01-04T06:07:53.083Z,101659.16
2023-01-04T06:10:20.916Z,101654.72
2023-01-04T06:12:48.487Z,101649.13
2023-01-04T06:15:16.097Z,101637.94
2023-01-04T06:17:43.723Z,101636.75
2023-01-04T06:20:12.904Z,101625.56
2023-01-04T06:22:41.559Z,101625.56
2023-01-04T06:25:09.585Z,101618.81
2023-01-04T06:27:37.404Z,101619.97
2023-01-04T06:30:05.248Z,101621.13
2023-01-04T06:32:33.222Z,101621.94
2023-01-04T06:35:00.841Z,101616.00
2023-01-04T06:37:29.814Z,101610.41
2023-01-04T06:39:57.367Z,101600.84
2023-01-04T06:42:42.243Z,101588.47
2023-01-04T06:45:10.543Z,101581.25
2023-01-04T06:47:38.169Z,101587.41
2023-01-04T06:50:06.306Z,101586.94
2023-01-04T06:52:35.781Z,101582.16
2023-01-04T06:55:03.677Z,101594.53
2023-01-04T06:57:31.807Z,101578.19
2023-01-04T06:59:59.428Z,101565.84
2023-01-04T07:02:28.312Z,101566.66
2023-01-04T07:04:56.049Z,101551.50
2023-01-04T07:07:23.728Z,101545.09
2023-01-04T07:09:52.709Z,101547.06
2023-01-04T07:12:20.319Z,101536.69
2023-01-04T07:14:47.921Z,101530.78
2023-01-04T07:17:15.559Z,101535.19
2023-01-04T07:19:43.230Z,101519.56
2023-01-04T07:22:10.860Z,101517.91
2023-01-04T07:24:38.419Z,101524.56
2023-01-04T07:27:07.862Z,101510.19
2023-01-04T07:29:35.433Z,101508.69
2023-01-04T07:32:03.797Z,101494.81
2023-01-04T07:34:32.940Z,101497.72
2023-01-04T07:37:00.505Z,101484.22
2023-01-04T07:39:28.116Z,101473.03
2023-01-04T07:41:55.731Z,101469.06
2023-01-04T07:44:27.920Z,101476.28
2023-01-04T07:46:55.551Z,101467.44
2023-01-04T07:49:23.152Z,101445.72
2023-01-04T07:51:50.826Z,101459.50
2023-01-04T07:54:18.580Z,101446.69
2023-01-04T07:56:46.571Z,101437.81
2023-01-04T07:59:17.296Z,101433.88
2023-01-04T08:01:46.561Z,101421.03
2023-01-04T08:04:14.355Z,101415.09
2023-01-04T08:06:42.106Z,101422.66
2023-01-04T08:09:09.728Z,101407.06
2023-01-04T08:11:37.348Z,101404.25
2023-01-04T08:14:04.984Z,101385.81
2023-01-04T08:16:33.060Z,101382.56
2023-01-04T08:19:03.303Z,101386.63
2023-01-04T08:21:31.104Z,101397.00
2023-01-04T08:23:58.712Z,101402.59
2023-01-04T08:26:26.293Z,101392.13
2023-01-04T08:28:54.955Z,101391.16
2023-01-04T08:31:23.266Z,101381.16
2023-01-04T08:33:51.031Z,101375.06
2023-01-04T08:36:26.314Z,101375.41
2023-01-04T08:39:00.058Z,101364.22
2023-01-04T08:41:56.500Z,101369.47
2023-01-04T08:44:16.123Z,101379.03
2023-01-04T08:46:43.808Z,101382.31
2023-01-04T08:49:11.463Z,101364.59
2023-01-04T08:51:40.573Z,101372.25
2023-01-04T08:54:08.447Z,101374.25
2023-01-04T08:56:36.247Z,101371.81
2023-01-04T08:59:03.940Z,101367.75
2023-01-04T09:01:32.661Z,101370.88
2023-01-04T09:04:00.423Z,101369.72
2023-01-04T09:06:28.256Z,101372.63
2023-01-04T09:08:58.062Z,101365.53
2023-01-04T09:11:25.741Z,101363.88
2023-01-04T09:13:58.244Z,101361.56
2023-01-04T09:16:30.302Z,101352.00
2023-01-04T09:18:58.066Z,101328.44
2023-01-04T09:21:25.683Z,101348.97
2023-01-04T09:23:53.594Z,101336.50
2023-01-04T09:26:23.600Z,101339.19
2023-01-04T09:28:51.892Z,101338.69
2023-01-04T09:31:20.326Z,101330.78
2023-01-04T09:34:13.369Z,101329.16
2023-01-04T09:36:35.595Z,101321.91
2023-01-04T09:39:03.209Z,101309.59
2023-01-04T09:41:32.446Z,101307.91
2023-01-04T09:44:02.136Z,101309.09
2023-01-04T09:46:31.525Z,101309.31
2023-01-04T09:49:01.509Z,101293.72
2023-01-04T09:51:32.385Z,101283.00
2023-01-04T09:54:01.675Z,101281.59
2023-01-04T09:56:30.203Z,101283.22
2023-01-04T09:58:59.249Z,101275.66
2023-01-04T10:01:27.396Z,101276.81
2023-01-04T10:03:56.870Z,101272.72
2023-01-04T10:06:24.490Z,101255.94
2023-01-04T10:08:52.075Z,101256.66
2023-01-04T10:11:29.036Z,101248.72
2023-01-04T10:14:01.959Z,101245.25
2023-01-04T10:17:11.432Z,101240.78
2023-01-04T10:21:08.536Z,101223.19
2023-01-04T10:22:13.282Z,101215.88
2023-01-04T10:24:43.615Z,101218.31
2023-01-04T10:27:12.906Z,101212.00
2023-01-04T10:29:43.755Z,101201.28
2023-01-04T10:32:14.376Z,101207.69
2023-01-04T10:34:42.724Z,101196.03
2023-01-04T10:37:13.630Z,101190.44
2023-01-04T10:39:41.259Z,101180.91
2023-01-04T10:42:11.377Z,101181.34
2023-01-04T10:44:39.843Z,101173.88
2023-01-04T10:47:10.651Z,101161.50
2023-01-04T10:49:41.235Z,101169.91
2023-01-04T10:52:10.404Z,101169.91
2023-01-04T10:54:39.424Z,101148.22
2023-01-04T10:57:08.530Z,101144.28
2023-01-04T10:59:37.423Z,101140.31
2023-01-04T11:02:08.083Z,101143.47
2023-01-04T11:04:38.564Z,101134.25
2023-01-04T11:07:10.833Z,101141.47
2023-01-04T11:09:40.144Z,101124.94
2023-01-04T11:12:07.808Z,101134.97
2023-01-04T11:14:37.573Z,101120.16
2023-01-04T11:17:06.522Z,101115.38
2023-01-04T11:19:34.484Z,101115.38
2023-01-04T11:22:06.293Z,101115.38
2023-01-04T11:24:34.642Z,101117.38
2023-01-04T11:27:05.299Z,101114.44
2023-01-04T11:29:34.016Z,101117.50
2023-01-04T11:32:02.896Z,101105.03
2023-01-04T11:34:46.819Z,101098.16
2023-01-04T11:37:25.637Z,101092.78
2023-01-04T11:39:53.296Z,101082.41
2023-01-04T11:42:21.093Z,101076.00
2023-01-04T11:44:58.610Z,101073.56
2023-01-04T11:47:29.801Z,101074.38
2023-01-04T11:49:59.253Z,101087.19
2023-01-04T11:52:30.652Z,101059.22
2023-01-04T11:54:58.399Z,101060.84
2023-01-04T11:57:26.017Z,101062.47
2023-01-04T12:00:08.836Z,101062.47
2023-01-04T12:05:29.936Z,101044.06
2023-01-04T12:07:59.705Z,101031.97
2023-01-04T12:10:27.857Z,101023.56
2023-01-04T12:12:55.731Z,101026.38
2023-01-04T12:15:26.641Z,101015.19
2023-01-04T12:17:54.790Z,101023.31
2023-01-04T12:20:22.449Z,101013.31
2023-01-04T12:22:50.064Z,101025.66
2023-01-04T12:25:31.793Z,101034.88
2023-01-04T12:27:59.453Z,101020.41
2023-01-04T12:30:34.139Z,101017.28
2023-01-04T12:33:01.726Z,101016.09
2023-01-04T12:36:06.277Z,101010.50
2023-01-04T12:38:52.439Z,100997.41
2023-01-04T12:41:21.490Z,100995.34
2023-01-04T12:43:49.962Z,100992.91
2023-01-04T12:46:54.375Z,100991.38
2023-01-04T12:49:40.535Z,100989.31
2023-01-04T12:52:34.771Z,100981.63
2023-01-04T12:55:26.976Z,100979.06
2023-01-04T12:57:56.004Z,100989.44
2023-01-04T13:00:23.788Z,100977.56
2023-01-04T13:03:21.759Z,100972.78
2023-01-04T13:05:58.387Z,100981.63
2023-01-04T13:08:26.112Z,100955.09
2023-01-04T13:10:55.133Z,100962.47
2023-01-04T13:13:26.806Z,100964.56
2023-01-04T13:15:56.271Z,100958.63
2023-01-04T13:18:28.460Z,100950.97
2023-01-04T13:20:56.345Z,100948.06
2023-01-04T13:23:24.033Z,100946.44
2023-01-04T13:25:51.763Z,100934.06
2023-01-04T13:28:19.412Z,100928.03
2023-01-04T13:30:48.882Z,100919.16
2023-01-04T13:33:27.297Z,100923.59
2023-01-04T13:36:00.649Z,100919.16
2023-01-04T13:38:28.265Z,100916.84
2023-01-04T13:40:56.112Z,100911.59
2023-01-04T13:43:34.553Z,100908.44
2023-01-04T13:46:11.081Z,100919.53
2023-01-04T13:48:39.112Z,100909.53
2023-01-04T13:51:07.154Z,100904.56
2023-01-04T13:53:34.793Z,100893.56
2023-01-04T13:56:02.688Z,100907.97
2023-01-04T13:58:31.531Z,100905.56
2023-01-04T14:00:59.644Z,100889.13
2023-01-04T14:03:32.823Z,100893.19
2023-01-04T14:06:18.431Z,100891.69
2023-01-04T14:08:47.397Z,100900.06
2023-01-04T14:11:36.676Z,100898.41
2023-01-04T14:14:04.359Z,100899.25
2023-01-04T14:16:31.982Z,100899.97
2023-01-04T14:19:01.029Z,100874.41
2023-01-04T14:21:34.646Z,100893.56
2023-01-04T14:24:02.272Z,100897.53
2023-01-04T14:26:30.196Z,100903.13
2023-01-04T14:28:57.767Z,100881.56
2023-01-04T14:31:32.087Z,100881.56
2023-01-04T14:34:01.939Z,100868.38
2023-01-04T14:36:30.447Z,100878.41
2023-01-04T14:39:02.214Z,100872.81
2023-01-04T14:41:31.170Z,100868.03
2023-01-04T14:44:04.634Z,100868.81
2023-01-04T14:46:32.523Z,100874.88
2023-01-04T14:49:01.559Z,100860.91
2023-01-04T14:51:32.041Z,100862.06
2023-01-04T14:53:59.600Z,100859.63
2023-01-04T14:56:27.184Z,100856.03
2023-01-04T14:58:55.714Z,100844.84
2023-01-04T15:01:23.315Z,100849.50
2023-01-04T15:03:50.996Z,100855.09
2023-01-04T15:06:20.019Z,100845.91
2023-01-04T15:08:48.721Z,100855.09
2023-01-04T15:11:17.786Z,100838.34
2023-01-04T15:13:45.419Z,100836.81
2023-01-04T15:16:13.706Z,100838.44
2023-01-04T15:18:41.368Z,100832.84
2023-01-04T15:21:09.321Z,100833.66
2023-01-04T15:23:38.271Z,100832.03
2023-01-04T15:26:06.028Z,100843.22
2023-01-04T15:28:33.693Z,100835.19
2023-01-04T15:31:01.368Z,100827.63
2023-01-04T15:33:32.071Z,100820.84
2023-01-04T15:36:00.551Z,100824.44
2023-01-04T15:38:28.358Z,100819.22
2023-01-04T15:41:01.800Z,100816.69
2023-01-04T15:43:34.138Z,100821.13
2023-01-04T15:46:04.335Z,100814.34
2023-01-04T15:48:31.974Z,100813.63
2023-01-04T15:51:02.540Z,100812.00
2023-01-04T15:53:30.156Z,100802.44
2023-01-04T15:56:06.101Z,100799.28
2023-01-04T15:58:33.699Z,100780.50
2023-01-04T16:01:06.376Z,100784.94
2023-01-04T16:03:35.232Z,100788.91
2023-01-04T16:06:05.251Z,100770.50
2023-01-04T16:08:32.829Z,100785.03
2023-01-04T16:11:00.477Z,100769.44
2023-01-04T16:13:29.451Z,100773.03
2023-01-04T16:16:01.165Z,100745.78
2023-01-04T16:18:32.354Z,100744.16
2023-01-04T16:21:00.717Z,100744.16
2023-01-04T16:23:28.357Z,100744.16
2023-01-04T16:26:05.948Z,100744.16
2023-01-04T16:28:34.943Z,100741.81
2023-01-04T16:31:02.655Z,100749.03
2023-01-04T16:33:30.481Z,100744.16
2023-01-04T16:36:01.706Z,100736.94
2023-01-04T16:38:29.319Z,100738.56
2023-01-04T16:41:00.409Z,100741.38
2023-01-04T16:43:28.498Z,100725.75
2023-01-04T16:46:14.465Z,100722.53
2023-01-04T16:48:42.071Z,100715.28
2023-01-04T16:51:09.939Z,100722.53
2023-01-04T16:53:37.539Z,100701.78
2023-01-04T16:56:05.351Z,100709.00
2023-01-04T16:58:32.951Z,100712.16
2023-01-04T17:01:06.398Z,100701.78
2023-01-04T17:03:35.471Z,100696.63
2023-01-04T17:06:05.966Z,100709.88
2023-01-04T17:08:33.568Z,100707.53
2023-01-04T17:11:38.327Z,100709.88
2023-01-04T17:13:52.600Z,100684.25
2023-01-04T17:16:21.362Z,100676.34
2023-01-04T17:18:50.414Z,100672.34
2023-01-04T17:21:33.903Z,100682.72
2023-01-04T17:24:02.536Z,100656.13
2023-01-04T17:26:31.370Z,100676.34
2023-01-04T17:28:59.100Z,100678.38
2023-01-04T17:31:27.276Z,100658.75
2023-01-04T17:33:56.560Z,100672.34
2023-01-04T17:36:24.509Z,100658.00
2023-01-04T17:38:52.138Z,100660.78
2023-01-04T17:41:20.213Z,100643.63
2023-01-04T17:43:48.108Z,100635.72
2023-01-04T17:46:22.436Z,100654.09
2023-01-04T17:49:04.100Z,100660.41
2023-01-04T17:51:39.921Z,100645.72
2023-01-04T17:54:08.347Z,100652.84
2023-01-04T17:56:37.658Z,100631.31
2023-01-04T17:59:06.655Z,100636.44
2023-01-04T18:01:34.738Z,100630.41
2023-01-04T18:04:02.717Z,100640.03
2023-01-04T18:06:30.805Z,100638.03
2023-01-04T18:09:05.305Z,100635.72
2023-01-04T18:11:32.933Z,100626.13
2023-01-04T18:14:02.918Z,100631.75
2023-01-04T18:16:33.716Z,100617.31
2023-01-04T18:19:01.332Z,100632.44
2023-01-04T18:21:30.640Z,100632.81
2023-01-04T18:27:19.898Z,100617.06
2023-01-04T18:29:35.853Z,100610.81
2023-01-04T18:32:03.926Z,100622.00
2023-01-04T18:34:31.722Z,100622.44
2023-01-04T18:36:59.354Z,100610.88
2023-01-04T18:39:28.316Z,100618.13
2023-01-04T18:41:56.167Z,100603.75
2023-01-04T18:44:33.515Z,100612.59
2023-01-04T18:47:02.417Z,100618.19
2023-01-04T18:49:31.692Z,100611.06
2023-01-04T18:51:59.340Z,100611.13
2023-01-04T18:54:28.334Z,100617.56
2023-01-04T18:57:00.685Z,100604.72
2023-01-04T18:59:29.198Z,100587.13
2023-01-04T19:02:00.935Z,100603.91
2023-01-04T19:04:29.440Z,100588.31
2023-01-04T19:06:57.091Z,100580.72
2023-01-04T19:09:24.721Z,100599.94
2023-01-04T19:11:53.702Z,100602.72
2023-01-04T19:14:21.477Z,100595.97
2023-01-04T19:16:49.231Z,100589.63
2023-01-04T19:19:16.977Z,100584.03
2023-01-04T19:21:44.766Z,100576.03
2023-01-04T19:24:12.363Z,100579.19
2023-01-04T19:26:40.034Z,100586.41
2023-01-04T19:29:09.080Z,100583.59
2023-01-04T19:31:36.699Z,100580.81
2023-01-04T19:34:04.296Z,100571.97
2023-01-04T19:36:31.888Z,100566.38
2023-01-04T19:38:59.950Z,100578.72
2023-01-04T19:41:33.864Z,100562.41
2023-01-04T19:44:02.353Z,100570.44
2023-01-04T19:46:31.788Z,100561.59
2023-01-04T19:48:59.928Z,100560.78
2023-01-04T19:51:28.911Z,100552.75
2023-01-04T19:53:56.497Z,100554.38
2023-01-04T19:56:24.116Z,100562.41
2023-01-04T19:58:51.696Z,100551.22
2023-01-04T20:01:19.953Z,100545.63
2023-01-04T20:03:49.281Z,100539.56
2023-01-04T20:06:16.906Z,100536.78
2023-01-04T20:08:44.465Z,100551.22
2023-01-04T20:11:12.636Z,100536.78
2023-01-04T20:13:41.433Z,100555.19
2023-01-04T20:16:09.226Z,100542.38
2023-01-04T20:18:37.077Z,100548.78
2023-01-04T20:21:09.446Z,100542.38
2023-01-04T20:23:37.696Z,100543.56
2023-01-04T20:26:11.184Z,100543.56
2023-01-04T20:28:40.572Z,100551.22
2023-01-04T20:31:09.658Z,100543.25
2023-01-04T20:33:37.328Z,100547.25
2023-01-04T20:36:05.625Z,100543.63
2023-01-04T20:38:39.624Z,100541.66
2023-01-04T20:41:07.915Z,100536.06
2023-01-04T20:43:34.640Z,100532.06
2023-01-04T20:46:02.646Z,100538.91
2023-01-04T20:48:30.386Z,100539.38
2023-01-04T20:50:58.151Z,100536.19
2023-01-04T20:53:25.782Z,100535.00
2023-01-04T20:55:54.848Z,100526.19
2023-01-04T20:58:22.539Z,100521.78
2023-01-04T21:00:50.394Z,100520.97
2023-01-04T21:03:18.347Z,100525.00
2023-01-04T21:05:46.127Z,100521.00
2023-01-04T21:08:13.967Z,100535.38
2023-01-04T21:10:41.883Z,100530.59
2023-01-04T21:13:11.012Z,100530.59
2023-01-04T21:15:38.773Z,100528.97
2023-01-04T21:18:06.589Z,100527.38
2023-01-04T21:20:34.233Z,100516.19
2023-01-04T21:23:01.878Z,100508.59
2023-01-04T21:25:29.659Z,100495.41
2023-01-04T21:28:00.604Z,100493.00
2023-01-04T21:30:29.630Z,100475.41
2023-01-04T21:33:01.509Z,100480.25
2023-01-04T21:35:29.590Z,100488.63
2023-01-04T21:37:57.251Z,100487.41
2023-01-04T21:40:24.887Z,100490.53
2023-01-04T21:42:52.500Z,100480.16
2023-01-04T21:45:20.326Z,100495.41
2023-01-04T21:47:49.326Z,100505.84
2023-01-04T21:50:17.438Z,100516.31
2023-01-04T21:52:45.095Z,100505.13
2023-01-04T21:55:12.739Z,100518.00
2023-01-04T21:57:40.366Z,100504.09
2023-01-04T22:00:09.027Z,100494.94
2023-01-04T22:02:36.767Z,100494.94
2023-01-04T22:05:06.323Z,100493.31
2023-01-04T22:07:34.013Z,100492.50
2023-01-04T22:10:01.617Z,100493.31
2023-01-04T22:12:29.231Z,100487.72
2023-01-04T22:14:56.897Z,100482.13
2023-01-04T22:17:24.524Z,100489.34
2023-01-04T22:19:52.080Z,100503.75
2023-01-04T22:22:21.032Z,100497.44
2023-01-04T22:24:48.765Z,100499.84
2023-01-04T22:27:16.440Z,100491.91
2023-01-04T22:29:44.102Z,100502.72
2023-01-04T22:32:11.733Z,100511.13
2023-01-04T22:34:39.336Z,100517.53
2023-01-04T22:37:06.971Z,100514.34
2023-01-04T22:39:35.925Z,100497.13
2023-01-04T22:42:03.593Z,100494.25
2023-01-04T22:44:31.509Z,100518.19
2023-01-04T22:46:59.258Z,100499.81
2023-01-04T22:49:26.931Z,100506.19
2023-01-04T22:51:56.197Z,100507.00
2023-01-04T22:54:23.867Z,100515.81
2023-01-04T22:56:52.849Z,100511.13
2023-01-04T22:59:20.469Z,100505.13
2023-01-04T23:01:48.165Z,100509.53
2023-01-04T23:04:16.744Z,100509.19
2023-01-04T23:06:44.457Z,100491.91
2023-01-04T23:09:12.956Z,100494.81
2023-01-04T23:11:41.030Z,100505.63
2023-01-04T23:14:12.036Z,100510.03
2023-01-04T23:16:39.778Z,100518.44
2023-01-04T23:19:07.478Z,100512.84
2023-01-04T23:21:35.258Z,100526.50
2023-01-04T23:24:03.047Z,100505.25
2023-01-04T23:26:30.962Z,100504.44
2023-01-04T23:28:58.655Z,100500.50
2023-01-04T23:31:28.490Z,100504.44
2023-01-04T23:33:56.877Z,100497.69
2023-01-04T23:36:25.337Z,100508.91
2023-01-04T23:38:53.173Z,100499.31
2023-01-04T23:41:20.866Z,100492.09
2023-01-04T23:43:48.619Z,100504.91
2023-01-04T23:46:17.254Z,100502.09
2023-01-04T23:48:46.308Z,100508.91
2023-01-04T23:51:14.173Z,100510.50
2023-01-04T23:53:41.906Z,100508.91
2023-01-04T23:56:13.583Z,100517.72
2023-01-04T23:58:41.224Z,100516.09
